Map

Track Data

SID SEASON NUMBER BASIN SUBBASIN NAME ISO_TIME NATURE LAT LON WMO_WIND WMO_PRES WMO_AGENCY TRACK_TYPE DIST2LAND LANDFALL IFLAG USA_AGENCY USA_ATCF_ID USA_LAT USA_LON USA_RECORD USA_STATUS USA_WIND USA_PRES USA_SSHS USA_R34_NE USA_R34_SE USA_R34_SW USA_R34_NW USA_R50_NE USA_R50_SE USA_R50_SW USA_R50_NW USA_R64_NE USA_R64_SE USA_R64_SW USA_R64_NW USA_POCI USA_ROCI USA_RMW USA_EYE TOKYO_LAT TOKYO_LON TOKYO_GRADE TOKYO_WIND TOKYO_PRES TOKYO_R50_DIR TOKYO_R50_LONG TOKYO_R50_SHORT TOKYO_R30_DIR TOKYO_R30_LONG TOKYO_R30_SHORT TOKYO_LAND CMA_LAT CMA_LON CMA_CAT CMA_WIND CMA_PRES HKO_LAT HKO_LON HKO_CAT HKO_WIND HKO_PRES NEWDELHI_LAT NEWDELHI_LON NEWDELHI_GRADE NEWDELHI_WIND NEWDELHI_PRES NEWDELHI_CI NEWDELHI_DP NEWDELHI_POCI REUNION_LAT REUNION_LON REUNION_TYPE REUNION_WIND REUNION_PRES REUNION_TNUM REUNION_CI REUNION_RMW REUNION_R34_NE REUNION_R34_SE REUNION_R34_SW REUNION_R34_NW REUNION_R50_NE REUNION_R50_SE REUNION_R50_SW REUNION_R50_NW REUNION_R64_NE REUNION_R64_SE REUNION_R64_SW REUNION_R64_NW BOM_LAT BOM_LON BOM_TYPE BOM_WIND BOM_PRES BOM_TNUM BOM_CI BOM_RMW BOM_R34_NE BOM_R34_SE BOM_R34_SW BOM_R34_NW BOM_R50_NE BOM_R50_SE BOM_R50_SW BOM_R50_NW BOM_R64_NE BOM_R64_SE BOM_R64_SW BOM_R64_NW BOM_ROCI BOM_POCI BOM_EYE BOM_POS_METHOD BOM_PRES_METHOD NADI_LAT NADI_LON NADI_CAT NADI_WIND NADI_PRES WELLINGTON_LAT WELLINGTON_LON WELLINGTON_WIND WELLINGTON_PRES DS824_LAT DS824_LON DS824_STAGE DS824_WIND DS824_PRES TD9636_LAT TD9636_LON TD9636_STAGE TD9636_WIND TD9636_PRES TD9635_LAT TD9635_LON TD9635_WIND TD9635_PRES TD9635_ROCI NEUMANN_LAT NEUMANN_LON NEUMANN_CLASS NEUMANN_WIND NEUMANN_PRES MLC_LAT MLC_LON MLC_CLASS MLC_WIND MLC_PRES USA_GUST BOM_GUST BOM_GUST_PER REUNION_GUST REUNION_GUST_PER USA_SEAHGT USA_SEARAD_NE USA_SEARAD_SE USA_SEARAD_SW USA_SEARAD_NW STORM_SPEED STORM_DIR
1968197N16257 1968 42 EP MM CELESTE 1968-07-15 00:00:00 TS 15.6000 -103.100 25 hurdat_epa main 271 264 O________OO___ hurdat_epa EP031968 15.6000 -103.100 TD 25 -1 15.6000 -103.100 TC 25 15.6000 -103.100 1 4 299
1968197N16257 1968 42 EP MM CELESTE 1968-07-15 03:00:00 TS 15.7052 -103.299 main 267 260 P________PP___ EP031968 15.7075 -103.290 TD 25 -1 15.7075 -103.290 TC 25 15.6958 -103.336 1 4 296
1968197N16257 1968 42 EP MM CELESTE 1968-07-15 06:00:00 TS 15.7966 -103.513 25 hurdat_epa main 264 260 O________OP___ hurdat_epa EP031968 15.8000 -103.500 TD 25 -1 15.8000 -103.500 TC 25 15.7832 -103.567 1 5 290
1968197N16257 1968 42 EP MM CELESTE 1968-07-15 09:00:00 TS 15.8628 -103.752 main 264 264 P________PP___ EP031968 15.8650 -103.743 TD 25 -1 15.8650 -103.743 TC 25 15.8540 -103.790 1 5 282
1968197N16257 1968 42 EP MM CELESTE 1968-07-15 12:00:00 TS 15.9000 -104.000 25 hurdat_epa main 271 271 O________OO___ hurdat_epa EP031968 15.9000 -104.000 TD 25 -1 15.9000 -104.000 TC 25 15.9000 -104.000 2 5 276
1968197N16257 1968 42 EP MM CELESTE 1968-07-15 15:00:00 TS 15.9093 -104.234 main 278 278 P________PP___ EP031968 15.9074 -104.243 TD 35 0 15.9074 -104.243 TC 35 15.9167 -104.200 2 5 270
1968197N16257 1968 42 EP MM CELESTE 1968-07-15 18:00:00 TS 15.9027 -104.485 45 hurdat_epa main 288 288 O________OP___ hurdat_epa EP031968 15.9000 -104.500 TS 45 0 15.9000 -104.500 TC 45 15.9137 -104.423 2 5 269
1968197N16257 1968 42 EP MM CELESTE 1968-07-15 21:00:00 TS 15.9006 -104.740 main 297 297 P________PP___ EP031968 15.8997 -104.748 TS 45 0 15.8997 -104.748 TC 45 15.9039 -104.709 2 6 270
1968197N16257 1968 42 EP MM CELESTE 1968-07-16 00:00:00 TS 15.9000 -105.100 45 hurdat_epa main 317 317 O________OO___ hurdat_epa EP031968 15.9000 -105.100 TS 45 0 15.9000 -105.100 TC 45 15.9000 -105.100 2 9 270
1968197N16257 1968 42 EP MM CELESTE 1968-07-16 03:00:00 TS 15.8986 -105.643 main 349 349 P________PP___ EP031968 15.8925 -105.640 TS 45 0 15.8925 -105.640 TC 45 15.9228 -105.654 2 12 271
1968197N16257 1968 42 EP MM CELESTE 1968-07-16 06:00:00 TS 15.9102 -106.302 45 hurdat_epa main 400 400 O________OP___ hurdat_epa EP031968 15.9000 -106.300 TS 45 0 15.9000 -106.300 TC 45 15.9512 -106.310 2 13 273
1968197N16257 1968 42 EP MM CELESTE 1968-07-16 09:00:00 TS 15.9558 -107.002 main 427 427 P________PP___ EP031968 15.9501 -107.000 TS 45 0 15.9501 -107.000 TC 45 15.9789 -107.011 2 13 274
1968197N16257 1968 42 EP MM CELESTE 1968-07-16 12:00:00 TS 16.0000 -107.700 45 hurdat_epa main 471 471 O________OO___ hurdat_epa EP031968 16.0000 -107.700 TS 45 0 16.0000 -107.700 TC 45 16.0000 -107.700 2 13 272
1968197N16257 1968 42 EP MM CELESTE 1968-07-16 15:00:00 TS 15.9998 -108.321 main 515 515 P________PP___ EP031968 16.0073 -108.323 TS 45 0 16.0073 -108.323 TC 45 15.9702 -108.314 2 12 269
1968197N16257 1968 42 EP MM CELESTE 1968-07-16 18:00:00 TS 15.9879 -108.901 45 hurdat_epa main 561 561 O________OP___ hurdat_epa EP031968 16.0000 -108.900 TS 45 0 16.0000 -108.900 TC 45 15.9395 -108.904 2 11 268
1968197N16257 1968 42 EP MM CELESTE 1968-07-16 21:00:00 TS 15.9637 -109.466 main 607 607 P________PP___ EP031968 15.9699 -109.465 TS 45 0 15.9699 -109.465 TC 45 15.9390 -109.467 2 11 271
1968197N16257 1968 42 EP MM CELESTE 1968-07-17 00:00:00 TS 16.0000 -110.000 45 hurdat_epa main 647 647 O________OO___ hurdat_epa EP031968 16.0000 -110.000 TS 45 0 16.0000 -110.000 TC 45 16.0000 -110.000 2 10 281
1968197N16257 1968 42 EP MM CELESTE 1968-07-17 03:00:00 TS 16.1651 -110.517 main 675 675 P________PP___ EP031968 16.1624 -110.515 TS 45 0 16.1624 -110.515 TC 45 16.1762 -110.523 2 10 293
1968197N16257 1968 42 EP MM CELESTE 1968-07-17 06:00:00 TS 16.4024 -111.003 45 hurdat_epa main 706 706 O________OP___ hurdat_epa EP031968 16.4000 -111.000 TS 45 0 16.4000 -111.000 TC 45 16.4121 -111.016 2 10 299
1968197N16257 1968 42 EP MM CELESTE 1968-07-17 09:00:00 TS 16.6653 -111.473 main 710 696 P________PP___ EP031968 16.6649 -111.472 TS 45 0 16.6649 -111.472 TC 45 16.6670 -111.476 2 10 300
1968197N16257 1968 42 EP MM CELESTE 1968-07-17 12:00:00 TS 16.9000 -111.900 45 hurdat_epa main 699 692 O________OO___ hurdat_epa EP031968 16.9000 -111.900 TS 45 0 16.9000 -111.900 TC 45 16.9000 -111.900 2 8 295
1968197N16257 1968 42 EP MM CELESTE 1968-07-17 15:00:00 TS 17.0193 -112.268 main 702 695 P________PP___ EP031968 17.0149 -112.265 TS 45 0 17.0149 -112.265 TC 45 17.0369 -112.279 2 7 287
1968197N16257 1968 42 EP MM CELESTE 1968-07-17 18:00:00 TS 17.1098 -112.605 45 hurdat_epa main 703 697 O________OP___ hurdat_epa EP031968 17.1000 -112.600 TS 45 0 17.1000 -112.600 TC 45 17.1492 -112.624 2 7 289
1968197N16257 1968 42 EP MM CELESTE 1968-07-17 21:00:00 TS 17.2403 -112.945 main 705 699 P________PP___ EP031968 17.2349 -112.943 TS 45 0 17.2349 -112.943 TC 45 17.2619 -112.957 2 7 294
1968197N16257 1968 42 EP MM CELESTE 1968-07-18 00:00:00 TS 17.4000 -113.300 45 hurdat_epa main 704 700 O________OO___ hurdat_epa EP031968 17.4000 -113.300 TS 45 0 17.4000 -113.300 TC 45 17.4000 -113.300 2 8 296
1968197N16257 1968 42 EP MM CELESTE 1968-07-18 03:00:00 TS 17.5863 -113.685 main 707 703 P________PP___ EP031968 17.5850 -113.693 TS 45 0 17.5850 -113.693 TC 45 17.5916 -113.654 2 9 298
1968197N16257 1968 42 EP MM CELESTE 1968-07-18 06:00:00 TS 17.8023 -114.085 45 hurdat_epa main 712 707 O________OP___ hurdat_epa EP031968 17.8000 -114.100 TS 45 0 17.8000 -114.100 TC 45 17.8115 -114.026 2 9 302
1968197N16257 1968 42 EP MM CELESTE 1968-07-18 09:00:00 TS 18.0439 -114.463 main 721 710 P________PP___ EP031968 18.0422 -114.470 TS 45 0 18.0422 -114.470 TC 45 18.0507 -114.435 2 9 303
1968197N16257 1968 42 EP MM CELESTE 1968-07-18 12:00:00 TS 18.3000 -114.900 45 hurdat_epa main 724 723 O________OO___ hurdat_epa EP031968 18.3000 -114.900 TS 45 0 18.3000 -114.900 TC 45 18.3000 -114.900 2 11 298
1968197N16257 1968 42 EP MM CELESTE 1968-07-18 15:00:00 TS 18.5511 -115.464 main 746 746 P________PP___ EP031968 18.5501 -115.470 TS 45 0 18.5501 -115.470 TC 45 18.5551 -115.438 2 12 294
1968197N16257 1968 42 EP MM CELESTE 1968-07-18 18:00:00 TS 18.8030 -116.086 45 hurdat_epa main 776 773 O________OP___ hurdat_epa EP031968 18.8000 -116.100 TS 45 0 18.8000 -116.100 TC 45 18.8151 -116.032 2 13 294
1968197N16257 1968 42 EP MM CELESTE 1968-07-18 21:00:00 TS 19.0593 -116.692 main 785 785 P________PP___ EP031968 19.0573 -116.700 TS 45 0 19.0573 -116.700 TC 45 19.0675 -116.660 2 13 293
1968197N16257 1968 42 EP MM CELESTE 1968-07-19 00:00:00 TS 19.3000 -117.300 45 hurdat_epa main 807 807 O________OO___ hurdat_epa EP031968 19.3000 -117.300 TS 45 0 19.3000 -117.300 TC 45 19.3000 -117.300 2 12 292
1968197N16257 1968 42 EP MM CELESTE 1968-07-19 03:00:00 TS 19.5094 -117.899 main 833 832 P________PP___ EP031968 19.5147 -117.893 TS 45 0 19.5147 -117.893 TC 45 19.4880 -117.923 2 12 289
1968197N16257 1968 42 EP MM CELESTE 1968-07-19 06:00:00 TS 19.6914 -118.510 45 hurdat_epa main 862 862 O________OP___ hurdat_epa EP031968 19.7000 -118.500 TS 45 0 19.7000 -118.500 TC 45 19.6569 -118.551 2 12 286
1968197N16257 1968 42 EP MM CELESTE 1968-07-19 09:00:00 TS 19.8444 -119.156 main 911 904 P________PP___ EP031968 19.8499 -119.150 TS 45 0 19.8499 -119.150 TC 45 19.8224 -119.179 2 13 284
1968197N16257 1968 42 EP MM CELESTE 1968-07-19 12:00:00 TS 20.0000 -119.800 45 hurdat_epa main 947 947 O________OO___ hurdat_epa EP031968 20.0000 -119.800 TS 45 0 20.0000 -119.800 TC 45 20.0000 -119.800 2 12 286
1968197N16257 1968 42 EP MM CELESTE 1968-07-19 15:00:00 TS 20.1907 -120.414 main 986 986 P________PP___ EP031968 20.1847 -120.408 TS 45 0 20.1847 -120.408 TC 45 20.2146 -120.439 2 12 290
1968197N16257 1968 42 EP MM CELESTE 1968-07-19 18:00:00 TS 20.4085 -121.013 45 hurdat_epa main 1013 1013 O________OP___ hurdat_epa EP031968 20.4000 -121.000 TS 45 0 20.4000 -121.000 TC 45 20.4426 -121.067 2 12 292
1968197N16257 1968 42 EP MM CELESTE 1968-07-19 21:00:00 TS 20.6549 -121.636 main 1028 1028 P________PP___ EP031968 20.6501 -121.630 TS 45 0 20.6501 -121.630 TC 45 20.6742 -121.661 2 12 294
1968197N16257 1968 42 EP MM CELESTE 1968-07-20 00:00:00 TS 20.9000 -122.200 45 hurdat_epa main 1052 1051 O________OO___ hurdat_epa EP031968 20.9000 -122.200 TS 45 0 20.9000 -122.200 TC 45 20.9000 -122.200 6 10 296
1968197N16257 1968 42 EP MM CELESTE 1968-07-20 03:00:00 TS 21.1060 -122.631 main 1065 1064 P________PP___ EP031968 21.1072 -122.630 TS 45 0 21.1072 -122.630 TC 45 21.1016 -122.634 6 9 298
1968197N16257 1968 42 EP MM CELESTE 1968-07-20 06:00:00 TS 21.2996 -123.003 45 hurdat_epa main 1079 1079 O________OP___ hurdat_epa EP031968 21.3000 -123.000 TS 45 0 21.3000 -123.000 TC 45 21.2979 -123.017 6 8 299
1968197N16257 1968 42 EP MM CELESTE 1968-07-20 09:00:00 TS 21.4929 -123.380 main 1094 1094 P________PP___ EP031968 21.4922 -123.378 TS 35 0 21.4922 -123.378 TC 35 21.4954 -123.391 6 8 298
1968197N16257 1968 42 EP MM CELESTE 1968-07-20 12:00:00 TS 21.7000 -123.800 25 hurdat_epa main 1112 1112 O________OO___ hurdat_epa EP031968 21.7000 -123.800 TD 25 -1 21.7000 -123.800 TC 25 21.7000 -123.800 6 10 297
1968197N16257 1968 42 EP MM CELESTE 1968-07-20 15:00:00 TS 21.9452 -124.322 main 1139 1139 P________PP___ EP031968 21.9500 -124.327 TD 25 -1 21.9500 -124.327 TC 25 21.9259 -124.303 6 11 296
1968197N16257 1968 42 EP MM CELESTE 1968-07-20 18:00:00 TS 22.1915 -124.889 25 hurdat_epa main 1170 1170 O________OP___ hurdat_epa EP031968 22.2000 -124.900 TD 25 -1 22.2000 -124.900 TC 25 22.1574 -124.847 6 11 294
1968197N16257 1968 42 EP MM CELESTE 1968-07-20 21:00:00 TS 22.4029 -125.444 main 1202 1202 P________PP___ EP031968 22.4073 -125.450 TD 25 -1 22.4073 -125.450 TC 25 22.3852 -125.418 6 11 292
1968197N16257 1968 42 EP MM CELESTE 1968-07-21 00:00:00 TS 22.6000 -126.000 25 hurdat_epa main 1243 1243 O________OO___ hurdat_epa EP031968 22.6000 -126.000 TD 25 -1 22.6000 -126.000 TC 25 22.6000 -126.000 6 11 291
1968197N16257 1968 42 EP MM CELESTE 1968-07-21 03:00:00 TS 22.8048 -126.550 main 1277 1277 P________PP___ EP031968 22.8072 -126.543 TD 25 -1 22.8072 -126.543 TC 25 22.7953 -126.579 6 11 291
1968197N16257 1968 42 EP MM CELESTE 1968-07-21 06:00:00 TS 22.9948 -127.111 25 hurdat_epa main 1322 1322 O________OP___ hurdat_epa EP031968 23.0000 -127.100 TD 25 -1 23.0000 -127.100 TC 25 22.9738 -127.154 6 11 288
1968197N16257 1968 42 EP MM CELESTE 1968-07-21 09:00:00 TS 23.1565 -127.697 main 1368 1368 P________PP___ EP031968 23.1605 -127.690 TD 25 -1 23.1605 -127.690 TC 25 23.1404 -127.727 6 11 286
1968197N16257 1968 42 EP MM CELESTE 1968-07-21 12:00:00 TS 23.3000 -128.300 25 hurdat_epa main 1420 O________OO___ hurdat_epa EP031968 23.3000 -128.300 TD 25 -1 23.3000 -128.300 TC 25 23.3000 -128.300 6 11 285

About IBTrACS Database

This database is a web-friendly format of International Best Track Archive for Climate Stewardship (IBTrACS), a global best track data archive curated by NOAA dating back to 1842.

Updated: 2021-10-08